Time;durP1;ratioP1;P1;durP2;ratioP2;P2;SDS_P1;SDS_P2;PMS_P1;PMS_P2;Temp;Humidity;BMP_temperature;BMP_pressure;BME280_temperature;BME280_humidity;BME280_pressure;Samples;Min_cycle;Max_cycle;Signal;HPM_P1;HPM_P2
2021/11/11 00:00:51;;;;;;;4.67;2.30;;;;;;;1.26;55.24;101301.42;1781937;78;21806;-58
2021/11/11 00:03:18;;;;;;;3.80;2.33;;;;;;;1.27;55.30;101304.97;1777314;78;21509;-58
2021/11/11 00:05:46;;;;;;;6.07;3.07;;;;;;;1.25;55.34;101301.39;1775451;78;21008;-58
2021/11/11 00:08:12;;;;;;;10.40;6.17;;;;;;;1.25;55.39;101308.02;1781165;78;21135;-59
2021/11/11 00:10:41;;;;;;;26.13;16.07;;;;;;;1.24;55.46;101300.50;1733637;80;21053;-58
2021/11/11 00:13:07;;;;;;;37.77;25.07;;;;;;;1.25;55.49;101303.61;1747914;79;21165;-58
2021/11/11 00:15:34;;;;;;;27.77;20.67;;;;;;;1.24;55.52;101294.30;1743837;80;21053;-59
2021/11/11 00:18:00;;;;;;;19.87;13.23;;;;;;;1.25;55.55;101292.11;1749887;80;21136;-58
2021/11/11 00:20:28;;;;;;;13.23;9.23;;;;;;;1.23;55.62;101289.86;1746437;80;21064;-58
2021/11/11 00:22:55;;;;;;;14.70;10.60;;;;;;;1.23;55.65;101277.49;1753136;80;20910;-58
2021/11/11 00:25:22;;;;;;;15.50;10.30;;;;;;;1.22;55.69;101286.31;1748186;79;21111;-59
2021/11/11 00:27:49;;;;;;;13.23;9.70;;;;;;;1.23;55.73;101284.55;1750511;80;21507;-58
2021/11/11 00:30:17;;;;;;;9.30;6.40;;;;;;;1.22;55.75;101282.77;1746572;80;21327;-58
2021/11/11 00:32:44;;;;;;;11.67;7.43;;;;;;;1.22;55.86;101283.66;1738279;80;20928;-58
2021/11/11 00:35:14;;;;;;;8.27;4.13;;;;;;;1.21;55.83;101268.61;1738091;80;20985;-59
2021/11/11 00:37:40;;;;;;;8.53;3.63;;;;;;;1.22;55.92;101266.86;1742022;80;21825;-58
2021/11/11 00:40:08;;;;;;;6.87;4.10;;;;;;;1.20;56.00;101265.50;1740742;80;21448;-58
2021/11/11 00:42:35;;;;;;;4.77;3.20;;;;;;;1.19;56.00;101262.42;1740017;80;20907;-58
2021/11/11 00:45:02;;;;;;;4.20;3.63;;;;;;;1.19;56.06;101258.88;1736731;80;20975;-58
2021/11/11 00:47:32;;;;;;;6.17;2.87;;;;;;;1.17;56.10;101255.30;1740082;80;21553;-57
2021/11/11 00:49:58;;;;;;;4.87;2.10;;;;;;;1.16;56.15;101250.87;1735358;80;21314;-59
2021/11/11 00:52:25;;;;;;;3.73;1.37;;;;;;;1.15;56.21;101247.33;1736608;80;20892;-58
2021/11/11 00:54:51;;;;;;;4.87;2.07;;;;;;;1.16;56.27;101249.54;1735793;80;20949;-58
2021/11/11 00:57:19;;;;;;;10.07;4.13;;;;;;;1.15;56.34;101251.30;1733940;80;20953;-58
2021/11/11 00:59:46;;;;;;;7.70;4.43;;;;;;;1.13;56.36;101248.62;1735209;80;22130;-58
2021/11/11 01:02:13;;;;;;;7.10;4.20;;;;;;;1.14;56.41;101246.43;1738076;80;22450;-58
2021/11/11 01:04:39;;;;;;;6.57;3.73;;;;;;;1.12;56.47;101241.53;1742421;80;20950;-57
2021/11/11 01:07:06;;;;;;;8.43;4.10;;;;;;;1.11;56.48;101234.44;1737710;80;21919;-58
2021/11/11 01:09:34;;;;;;;7.20;3.63;;;;;;;1.11;56.55;101234.88;1738048;80;20882;-58
2021/11/11 01:12:02;;;;;;;7.37;3.60;;;;;;;1.10;56.64;101235.34;1732957;80;21088;-58
2021/11/11 01:14:28;;;;;;;5.73;2.43;;;;;;;1.08;56.71;101230.44;1731150;80;21149;-57
2021/11/11 01:16:56;;;;;;;4.77;2.90;;;;;;;1.07;56.77;101232.64;1732972;80;21045;-58
2021/11/11 01:19:22;;;;;;;3.30;2.77;;;;;;;1.05;56.84;101230.39;1732889;81;21074;-58
2021/11/11 01:21:49;;;;;;;7.07;3.53;;;;;;;1.03;56.91;101227.25;1733918;80;21088;-58
2021/11/11 01:24:16;;;;;;;6.50;2.50;;;;;;;1.02;56.98;101224.17;1737797;80;21041;-58
2021/11/11 01:26:44;;;;;;;4.07;2.20;;;;;;;1.00;57.05;101221.49;1727854;80;21672;-58
2021/11/11 01:29:10;;;;;;;5.73;2.40;;;;;;;0.99;57.16;101225.45;1734624;80;21672;-58
2021/11/11 01:31:39;;;;;;;4.30;2.27;;;;;;;0.97;57.22;101213.48;1715757;80;21084;-58
2021/11/11 01:34:05;;;;;;;11.73;3.40;;;;;;;0.96;57.32;101211.70;1746041;80;21174;-58
2021/11/11 01:36:33;;;;;;;3.77;2.57;;;;;;;0.94;57.36;101211.22;1768683;78;21067;-59
2021/11/11 01:39:02;;;;;;;11.07;6.60;;;;;;;0.93;57.47;101215.66;1775027;78;21146;-58
2021/11/11 01:41:34;;;;;;;14.10;9.00;;;;;;;0.92;57.56;101220.94;1771831;78;21096;-58
2021/11/11 01:44:02;;;;;;;12.80;6.90;;;;;;;0.91;57.62;101217.82;1765703;79;20886;-58
2021/11/11 01:46:28;;;;;;;13.03;5.90;;;;;;;0.90;57.70;101206.76;1767658;79;20946;-58
2021/11/11 01:48:55;;;;;;;6.70;3.97;;;;;;;0.89;57.78;101205.86;1753173;80;20886;-57
2021/11/11 01:51:23;;;;;;;6.80;3.83;;;;;;;0.89;57.82;101199.23;1744690;80;21122;-57
2021/11/11 01:53:51;;;;;;;7.77;2.60;;;;;;;0.89;57.92;101193.94;1746111;80;20890;-58
2021/11/11 01:56:20;;;;;;;4.60;2.73;;;;;;;0.89;57.96;101195.69;1777610;78;20953;-57
2021/11/11 01:58:47;;;;;;;4.53;2.27;;;;;;;0.87;58.00;101190.80;1735128;81;21033;-58
2021/11/11 02:01:14;;;;;;;4.10;2.07;;;;;;;0.86;58.09;101187.25;1753377;79;21079;-57
2021/11/11 02:03:41;;;;;;;4.87;2.27;;;;;;;0.85;58.17;101188.59;1750449;80;21142;-58
2021/11/11 02:06:24;;;;;;;4.17;1.90;;;;;;;0.83;58.25;101174.41;1751373;79;21088;-57
2021/11/11 02:08:57;;;;;;;5.70;2.40;;;;;;;0.81;58.34;101166.87;1758539;79;21147;-58
2021/11/11 02:11:26;;;;;;;6.50;2.03;;;;;;;0.79;58.42;101169.92;1752052;80;21574;-58
2021/11/11 02:13:53;;;;;;;5.47;2.37;;;;;;;0.78;58.49;101169.03;1748783;79;21091;-58
2021/11/11 02:16:20;;;;;;;4.87;2.07;;;;;;;0.76;58.58;101166.81;1729502;81;22712;-58
2021/11/11 02:18:47;;;;;;;3.73;1.73;;;;;;;0.74;58.59;101168.12;1724507;81;21108;-58
2021/11/11 02:21:16;;;;;;;2.47;1.50;;;;;;;0.73;58.66;101157.05;1757194;80;20988;-57
2021/11/11 02:23:44;;;;;;;3.17;2.03;;;;;;;0.72;58.72;101154.38;1757705;79;20969;-57
2021/11/11 02:26:12;;;;;;;6.33;3.60;;;;;;;0.71;58.78;101157.89;1755797;79;20941;-57
2021/11/11 02:28:44;;;;;;;7.23;3.07;;;;;;;0.70;58.82;101162.73;1710929;80;20909;-57
2021/11/11 02:31:11;;;;;;;5.23;2.13;;;;;;;0.67;58.88;101159.63;1756101;79;20925;-58
2021/11/11 02:33:40;;;;;;;5.77;2.33;;;;;;;0.65;58.93;101153.41;1756228;81;20980;-58
2021/11/11 02:36:08;;;;;;;3.97;1.53;;;;;;;0.63;58.99;101155.14;1750069;80;21112;-57
2021/11/11 02:38:34;;;;;;;4.67;1.87;;;;;;;0.61;59.10;101145.37;1747678;80;21605;-58
2021/11/11 02:41:02;;;;;;;3.40;1.73;;;;;;;0.60;59.14;101153.77;1750124;80;21574;-57
2021/11/11 02:43:28;;;;;;;6.30;1.90;;;;;;;0.58;59.22;101146.68;1755573;80;21297;-57
2021/11/11 02:45:56;;;;;;;2.30;1.57;;;;;;;0.56;59.27;101151.95;1756292;80;21074;-58
2021/11/11 02:48:25;;;;;;;5.33;1.70;;;;;;;0.53;59.36;101142.63;1764639;80;21223;-57
2021/11/11 02:50:54;;;;;;;6.23;1.70;;;;;;;0.50;59.43;101137.30;1765254;79;20894;-58
2021/11/11 02:53:22;;;;;;;8.90;1.67;;;;;;;0.48;59.53;101138.14;1765912;80;20969;-57
2021/11/11 02:55:50;;;;;;;3.37;1.40;;;;;;;0.45;59.59;101128.37;1763389;79;20914;-55
2021/11/11 02:58:16;;;;;;;4.37;1.77;;;;;;;0.44;59.65;101130.56;1767778;79;20954;-56
2021/11/11 03:00:50;;;;;;;3.57;1.37;;;;;;;0.45;59.70;101127.48;1770342;79;20869;-55
2021/11/11 03:03:17;;;;;;;2.97;1.23;;;;;;;0.43;59.77;101127.45;1739394;80;21076;-55
2021/11/11 03:05:44;;;;;;;3.60;1.90;;;;;;;0.43;59.80;101126.13;1735840;80;21155;-55
2021/11/11 03:08:13;;;;;;;4.43;1.53;;;;;;;0.43;59.81;101119.94;1744265;80;21065;-54
2021/11/11 03:10:43;;;;;;;1.80;1.10;;;;;;;0.42;59.88;101117.76;1753549;79;21057;-55
2021/11/11 03:13:11;;;;;;;3.40;1.50;;;;;;;0.42;59.89;101108.92;1754238;80;20932;-56
2021/11/11 03:15:39;;;;;;;2.00;1.40;;;;;;;0.42;59.92;101105.84;1754287;80;21056;-56
2021/11/11 03:18:06;;;;;;;4.67;1.10;;;;;;;0.41;59.93;101104.05;1729755;80;21085;-56
2021/11/11 03:20:32;;;;;;;2.73;1.30;;;;;;;0.40;59.96;101098.30;1735734;80;20989;-56
2021/11/11 03:22:58;;;;;;;2.27;1.53;;;;;;;0.40;60.01;101102.70;1730661;81;21048;-55
2021/11/11 03:25:29;;;;;;;2.50;1.60;;;;;;;0.38;60.08;101092.97;1739526;81;21136;-55
2021/11/11 03:27:56;;;;;;;2.50;1.20;;;;;;;0.36;60.12;101098.67;1745749;80;21336;-54
2021/11/11 03:30:25;;;;;;;4.33;1.63;;;;;;;0.35;60.21;101092.02;1749251;81;21831;-55
2021/11/11 03:32:53;;;;;;;5.47;1.40;;;;;;;0.33;60.24;101093.35;1751127;80;20949;-55
2021/11/11 03:35:19;;;;;;;2.57;1.20;;;;;;;0.33;60.32;101083.19;1733637;81;21305;-56
2021/11/11 03:37:47;;;;;;;2.50;1.60;;;;;;;0.32;60.34;101075.67;1734120;81;21755;-55
2021/11/11 03:40:21;;;;;;;4.70;1.23;;;;;;;0.33;60.37;101075.25;1779756;78;21989;-55
2021/11/11 03:42:49;;;;;;;5.70;1.80;;;;;;;0.33;60.39;101067.30;1776905;78;21361;-55
2021/11/11 03:45:17;;;;;;;3.57;1.50;;;;;;;0.32;60.40;101070.38;1748088;80;21048;-54
2021/11/11 03:47:46;;;;;;;3.60;1.33;;;;;;;0.31;60.45;101063.73;1775841;79;20898;-55
2021/11/11 03:50:13;;;;;;;5.50;1.40;;;;;;;0.31;60.47;101061.08;1778127;78;20936;-56
2021/11/11 03:52:40;;;;;;;2.50;1.40;;;;;;;0.30;60.47;101061.52;1784062;78;21684;-55
2021/11/11 03:55:08;;;;;;;3.83;1.53;;;;;;;0.31;60.51;101051.81;1774723;79;20961;-56
2021/11/11 03:57:36;;;;;;;3.57;1.37;;;;;;;0.29;60.54;101048.25;1755499;79;20922;-55
2021/11/11 04:00:07;;;;;;;7.27;1.67;;;;;;;0.28;60.58;101047.36;1751675;79;21052;-56
2021/11/11 04:02:37;;;;;;;4.30;1.22;;;;;;;0.29;60.58;101042.95;1753291;79;21349;-55
2021/11/11 04:05:04;;;;;;;4.77;1.40;;;;;;;0.27;60.61;101038.06;1754848;79;20962;-55
2021/11/11 04:07:31;;;;;;;3.20;0.93;;;;;;;0.25;60.63;101028.80;1754145;79;21110;-55
2021/11/11 04:09:57;;;;;;;2.83;1.23;;;;;;;0.23;60.71;101023.91;1750159;80;20914;-55
2021/11/11 04:12:24;;;;;;;2.03;1.10;;;;;;;0.22;60.75;101030.50;1715761;80;21017;-56
2021/11/11 04:14:50;;;;;;;1.90;0.90;;;;;;;0.21;60.83;101029.61;1754713;79;20962;-56
2021/11/11 04:17:16;;;;;;;1.87;1.00;;;;;;;0.20;60.84;101026.94;1754915;79;20936;-56
2021/11/11 04:19:43;;;;;;;2.10;1.10;;;;;;;0.20;60.87;101019.88;1748870;80;21088;-55
2021/11/11 04:22:09;;;;;;;4.63;0.90;;;;;;;0.19;60.92;101030.45;1751993;80;20934;-56
2021/11/11 04:24:38;;;;;;;5.37;1.13;;;;;;;0.20;60.93;101022.96;1751604;79;22456;-56
2021/11/11 04:27:10;;;;;;;2.10;0.97;;;;;;;0.21;60.96;101030.04;1750636;80;21085;-56
2021/11/11 04:29:37;;;;;;;2.63;1.27;;;;;;;0.19;61.04;101017.20;1756035;80;20937;-56
2021/11/11 04:32:06;;;;;;;1.90;1.20;;;;;;;0.18;61.08;101011.45;1751883;79;22188;-56
2021/11/11 04:34:33;;;;;;;2.97;1.43;;;;;;;0.16;61.13;101003.52;1717812;80;21127;-56
2021/11/11 05:01:15;;;;;;;1.63;1.10;;;;;;;0.09;61.68;100974.26;1781505;78;20898;-57
2021/11/11 05:03:38;;;;;;;3.17;1.40;;;;;;;0.07;61.74;100972.94;1776715;78;21271;-56
2021/11/11 05:06:05;;;;;;;3.00;1.53;;;;;;;0.08;61.78;100976.48;1745381;80;21052;-56
2021/11/11 05:08:33;;;;;;;2.70;1.50;;;;;;;0.07;61.76;100974.70;1773398;79;21068;-56
2021/11/11 05:11:01;;;;;;;3.90;1.60;;;;;;;0.08;61.77;100991.04;1784660;78;21128;-56
2021/11/11 05:13:28;;;;;;;4.63;1.10;;;;;;;0.08;61.80;100991.04;1779405;78;20961;-56
2021/11/11 05:15:55;;;;;;;8.30;1.40;;;;;;;0.08;61.83;100992.36;1780472;78;20938;-56
2021/11/11 05:18:21;;;;;;;3.77;1.50;;;;;;;0.07;61.83;100999.41;1782173;79;21332;-57
2021/11/11 05:20:47;;;;;;;1.50;0.90;;;;;;;0.09;61.85;100994.11;1781665;78;21053;-56
2021/11/11 05:23:14;;;;;;;1.77;1.13;;;;;;;0.10;61.84;100994.14;1775444;78;20929;-56
2021/11/11 05:25:42;;;;;;;2.40;1.07;;;;;;;0.12;61.80;100992.84;1775938;78;21088;-55
2021/11/11 05:28:09;;;;;;;2.73;1.20;;;;;;;0.15;61.81;100987.60;1791163;78;21027;-56
2021/11/11 05:30:35;;;;;;;3.00;1.30;;;;;;;0.16;61.74;100992.03;1755615;79;21217;-56
2021/11/11 05:33:02;;;;;;;3.77;0.97;;;;;;;0.18;61.75;100993.80;1763418;79;22216;-56
2021/11/11 05:35:30;;;;;;;1.80;1.10;;;;;;;0.18;61.75;100985.86;1769250;79;22308;-57
2021/11/11 05:37:57;;;;;;;2.47;1.40;;;;;;;0.20;61.74;100977.95;1769720;79;21388;-56
2021/11/11 05:40:24;;;;;;;2.13;1.10;;;;;;;0.21;61.73;100968.70;1739624;79;21494;-57
2021/11/11 05:42:50;;;;;;;5.77;1.40;;;;;;;0.22;61.73;100981.51;1763080;79;21481;-57
2021/11/11 05:45:17;;;;;;;2.90;1.10;;;;;;;0.24;61.72;100983.32;1766483;80;21499;-56
2021/11/11 05:47:44;;;;;;;3.60;1.07;;;;;;;0.27;61.73;100982.45;1769840;79;21525;-56
2021/11/11 05:50:14;;;;;;;2.63;1.37;;;;;;;0.30;61.73;100982.06;1768937;79;20933;-57
2021/11/11 05:52:40;;;;;;;2.80;1.40;;;;;;;0.33;61.73;100971.52;1768555;79;21369;-56
2021/11/11 05:55:09;;;;;;;3.40;1.20;;;;;;;0.36;61.71;100976.83;1745860;80;20965;-57
2021/11/11 05:57:36;;;;;;;4.10;1.47;;;;;;;0.42;61.68;100968.53;1762834;79;21123;-57
2021/11/11 06:00:07;;;;;;;2.07;1.00;;;;;;;0.46;61.64;100957.97;1765704;79;21105;-57
2021/11/11 06:02:37;;;;;;;1.95;0.98;;;;;;;0.50;61.59;100955.83;1767354;79;21067;-57
2021/11/11 06:05:05;;;;;;;2.23;1.10;;;;;;;0.56;61.53;100963.84;1766776;79;21116;-56
2021/11/11 06:07:31;;;;;;;3.73;1.30;;;;;;;0.60;61.47;100960.77;1766760;79;21022;-57
2021/11/11 06:09:58;;;;;;;3.13;1.00;;;;;;;0.63;61.44;100963.02;1719384;81;21076;-57
2021/11/11 06:12:24;;;;;;;3.27;1.23;;;;;;;0.68;61.36;100956.00;1720545;81;22213;-57
2021/11/11 06:14:51;;;;;;;5.50;1.53;;;;;;;0.73;61.28;100966.67;1722084;81;21069;-57
2021/11/11 06:17:18;;;;;;;3.77;1.33;;;;;;;0.77;61.20;100965.81;1726737;81;21045;-57
2021/11/11 06:19:46;;;;;;;2.77;1.17;;;;;;;0.80;61.16;100963.64;1726437;81;21144;-57
2021/11/11 06:22:12;;;;;;;3.17;1.73;;;;;;;0.82;61.07;100963.23;1725000;82;21100;-57
2021/11/11 06:24:39;;;;;;;2.67;1.40;;;;;;;0.85;61.04;100973.41;1707910;82;21148;-57
2021/11/11 06:27:06;;;;;;;2.30;0.90;;;;;;;0.88;60.97;100964.61;1726363;80;21041;-56
2021/11/11 06:29:34;;;;;;;4.33;1.10;;;;;;;0.92;60.88;100961.12;1726067;80;21056;-56
2021/11/11 06:32:03;;;;;;;4.83;1.23;;;;;;;0.96;60.82;100950.55;1740651;79;21570;-56
2021/11/11 06:34:31;;;;;;;3.93;1.10;;;;;;;0.98;60.73;100949.25;1757886;80;20965;-56
2021/11/11 06:36:58;;;;;;;2.40;1.20;;;;;;;1.02;60.65;100944.44;1779525;80;21890;-57
2021/11/11 06:39:24;;;;;;;4.17;1.53;;;;;;;1.05;60.52;100940.03;1776565;80;20937;-56
2021/11/11 06:41:51;;;;;;;3.87;1.60;;;;;;;1.08;60.45;100945.37;1782031;78;21099;-55
2021/11/11 06:44:23;;;;;;;5.30;1.13;;;;;;;1.12;60.34;100931.69;1766208;79;20969;-56
2021/11/11 06:46:51;;;;;;;2.83;1.40;;;;;;;1.18;60.25;100935.74;1778172;78;21427;-56
2021/11/11 06:49:18;;;;;;;2.80;1.30;;;;;;;1.25;60.08;100934.02;1779082;79;21745;-56
2021/11/11 06:51:45;;;;;;;2.30;1.20;;;;;;;1.32;59.87;100922.58;1727416;81;21539;-56
2021/11/11 06:54:11;;;;;;;5.10;1.90;;;;;;;1.37;59.71;100924.38;1726971;81;21361;-55
2021/11/11 06:56:37;;;;;;;3.87;1.93;;;;;;;1.43;59.57;100931.08;1727586;81;20902;-55
2021/11/11 06:59:04;;;;;;;8.37;2.13;;;;;;;1.50;59.22;100922.72;1728460;81;20984;-55
2021/11/11 07:01:30;;;;;;;8.63;2.90;;;;;;;1.56;59.05;100908.59;1778002;78;21136;-56
2021/11/11 07:03:56;;;;;;;8.63;2.40;;;;;;;1.62;59.03;100914.81;1766808;79;20906;-55
2021/11/11 07:06:24;;;;;;;7.83;2.93;;;;;;;1.68;58.80;100913.55;1781194;78;20907;-55
2021/11/11 07:08:51;;;;;;;10.40;4.30;;;;;;;1.75;58.76;100919.78;1755815;80;21096;-56
2021/11/11 07:11:18;;;;;;;10.20;5.87;;;;;;;1.82;58.49;100919.82;1751677;80;21674;-55
2021/11/11 07:13:44;;;;;;;8.47;5.27;;;;;;;1.89;58.41;100909.67;1745479;80;22243;-55
2021/11/11 07:16:12;;;;;;;14.57;9.07;;;;;;;1.98;58.20;100910.16;1748166;80;21111;-55
2021/11/11 07:18:38;;;;;;;12.10;8.57;;;;;;;2.07;58.03;100926.58;1750953;80;21011;-56
2021/11/11 07:21:05;;;;;;;3.37;2.80;;;;;;;2.16;57.87;100932.83;1749798;79;21052;-56
2021/11/11 07:23:31;;;;;;;4.90;2.23;;;;;;;2.25;57.61;100925.34;1742927;79;21594;-56
2021/11/11 07:25:58;;;;;;;2.40;1.70;;;;;;;2.32;57.44;100927.12;1761158;80;21458;-56
2021/11/11 07:28:24;;;;;;;4.27;1.97;;;;;;;2.40;57.27;100928.48;1749773;80;21527;-56
2021/11/11 07:30:50;;;;;;;3.63;1.83;;;;;;;2.47;57.12;100924.52;1750107;80;21535;-56
2021/11/11 07:33:18;;;;;;;6.30;1.63;;;;;;;2.55;57.02;100920.59;1745535;80;21485;-56
2021/11/11 07:35:45;;;;;;;7.47;1.33;;;;;;;2.63;56.87;100917.50;1746779;80;21056;-56
2021/11/11 07:38:13;;;;;;;3.00;1.50;;;;;;;2.73;56.64;100915.72;1746506;80;21115;-56
2021/11/11 07:40:40;;;;;;;7.63;2.13;;;;;;;2.82;56.54;100913.08;1744490;80;21072;-56
2021/11/11 07:43:06;;;;;;;5.37;2.73;;;;;;;2.91;56.39;100911.77;1746857;80;21020;-56
2021/11/11 07:45:37;;;;;;;6.83;1.63;;;;;;;3.00;56.07;100905.13;1746402;80;21410;-56
2021/11/11 07:48:04;;;;;;;9.73;1.50;;;;;;;3.10;55.77;100898.05;1741903;79;21091;-57
2021/11/11 07:50:33;;;;;;;5.73;1.40;;;;;;;3.19;55.44;100900.70;1755132;80;22319;-56
2021/11/11 07:53:00;;;;;;;5.10;2.00;;;;;;;3.29;55.24;100902.48;1748512;80;20895;-57
2021/11/11 07:55:28;;;;;;;8.17;2.00;;;;;;;3.39;54.88;100886.95;1747211;80;21088;-56
2021/11/11 07:57:55;;;;;;;4.63;1.40;;;;;;;3.47;54.76;100889.61;1744620;79;21700;-57
2021/11/11 08:00:22;;;;;;;11.57;2.10;;;;;;;3.56;54.38;100885.16;1747054;80;21001;-57
2021/11/11 08:02:48;;;;;;;5.03;1.93;;;;;;;3.64;54.08;100883.80;1751503;80;21479;-56
2021/11/11 08:05:17;;;;;;;4.37;1.60;;;;;;;3.72;54.05;100887.34;1747450;80;20990;-56
2021/11/11 08:07:45;;;;;;;3.40;1.33;;;;;;;3.80;53.87;100884.20;1751185;80;21022;-57
2021/11/11 08:10:11;;;;;;;6.77;2.10;;;;;;;3.87;53.75;100882.41;1755171;80;20985;-57
2021/11/11 08:12:40;;;;;;;5.07;2.27;;;;;;;3.96;53.53;100880.59;1752560;79;21369;-56
2021/11/11 08:15:07;;;;;;;7.47;3.17;;;;;;;4.04;53.18;100874.80;1747076;80;21125;-57
2021/11/11 08:17:34;;;;;;;5.87;3.87;;;;;;;4.11;53.05;100879.64;1752795;79;21045;-57
2021/11/11 08:20:01;;;;;;;4.13;2.57;;;;;;;4.18;52.98;100877.39;1752242;79;20957;-57
2021/11/11 08:22:28;;;;;;;7.37;5.07;;;;;;;4.27;52.74;100876.02;1752069;80;21265;-57
2021/11/11 08:24:55;;;;;;;5.03;2.50;;;;;;;4.34;52.65;100883.56;1751285;80;20965;-56
2021/11/11 08:27:22;;;;;;;3.27;1.73;;;;;;;4.40;52.53;100879.52;1745653;80;21478;-57
2021/11/11 08:29:48;;;;;;;5.70;1.93;;;;;;;4.48;52.39;100870.58;1744308;80;22742;-57
2021/11/11 08:32:15;;;;;;;8.33;2.37;;;;;;;4.56;52.22;100875.42;1745392;80;21527;-56
2021/11/11 08:34:43;;;;;;;5.07;2.33;;;;;;;4.65;51.99;100874.48;1724551;81;20990;-57
2021/11/11 08:37:09;;;;;;;7.87;2.20;;;;;;;4.75;51.68;100869.97;1722596;81;20977;-57
2021/11/11 08:39:37;;;;;;;11.03;2.50;;;;;;;4.83;51.07;100854.80;1731660;81;21080;-57
2021/11/11 08:42:07;;;;;;;2.77;1.70;;;;;;;4.90;50.66;100859.19;1729484;81;20937;-56
2021/11/11 08:44:33;;;;;;;5.37;1.57;;;;;;;4.98;50.31;100859.12;1732957;81;20915;-57
2021/11/11 08:47:00;;;;;;;7.57;1.30;;;;;;;5.06;50.14;100858.16;1754086;80;20893;-56
2021/11/11 08:49:27;;;;;;;5.50;1.20;;;;;;;5.14;49.87;100853.64;1742511;80;21092;-57
2021/11/11 08:51:54;;;;;;;2.17;0.80;;;;;;;5.20;49.19;100838.90;1720670;81;21093;-57
2021/11/11 08:54:21;;;;;;;1.40;0.80;;;;;;;5.27;48.70;100841.94;1718924;81;21108;-57
2021/11/11 08:56:48;;;;;;;2.30;0.90;;;;;;;5.33;48.27;100827.67;1718636;81;21025;-57
2021/11/11 08:59:21;;;;;;;1.63;1.00;;;;;;;5.38;48.12;100827.61;1748838;80;21720;-57
2021/11/11 09:01:49;;;;;;;1.98;0.85;;;;;;;5.42;48.27;100814.23;1754097;80;21506;-57
2021/11/11 09:04:17;;;;;;;3.13;1.17;;;;;;;5.50;48.02;100827.49;1753314;80;22028;-57
2021/11/11 09:06:44;;;;;;;4.60;0.80;;;;;;;5.53;47.76;100826.14;1752072;80;21447;-57
2021/11/11 09:09:12;;;;;;;2.77;1.00;;;;;;;5.57;47.63;100825.19;1733642;80;21062;-57
2021/11/11 09:11:39;;;;;;;2.93;0.80;;;;;;;5.63;47.44;100819.77;1732699;80;20950;-57
2021/11/11 09:14:05;;;;;;;5.30;1.10;;;;;;;5.69;47.61;100818.39;1733798;80;21055;-57
2021/11/11 09:16:32;;;;;;;8.00;1.00;;;;;;;5.78;47.42;100812.94;1731794;80;21147;-57
2021/11/11 09:18:58;;;;;;;4.40;1.00;;;;;;;5.84;47.03;100796.82;1733705;80;21041;-57
2021/11/11 09:21:28;;;;;;;3.93;0.90;;;;;;;5.91;46.65;100793.65;1734454;80;20910;-57
2021/11/11 09:23:55;;;;;;;1.97;0.83;;;;;;;5.98;46.50;100800.23;1733501;80;20933;-57
2021/11/11 09:26:21;;;;;;;5.63;0.80;;;;;;;6.03;45.94;100781.03;1735533;80;20937;-57
2021/11/11 09:28:51;;;;;;;2.77;0.70;;;;;;;6.10;45.70;100783.61;1729157;80;21208;-58
2021/11/11 09:31:18;;;;;;;1.03;0.70;;;;;;;6.15;45.11;100779.06;1734631;80;21435;-57
2021/11/11 09:33:45;;;;;;;2.63;0.70;;;;;;;6.18;45.08;100767.89;1735441;80;20972;-57
2021/11/11 09:36:14;;;;;;;1.83;1.07;;;;;;;6.24;45.10;100758.88;1753702;80;20984;-58
2021/11/11 09:38:40;;;;;;;2.13;0.80;;;;;;;6.31;44.96;100765.91;1751911;79;21013;-57
2021/11/11 09:41:06;;;;;;;3.93;0.90;;;;;;;6.38;44.67;100748.89;1755440;79;21084;-57
2021/11/11 09:43:35;;;;;;;4.70;0.80;;;;;;;6.43;44.49;100746.56;1753734;79;20901;-57
2021/11/11 09:46:01;;;;;;;1.23;0.70;;;;;;;6.49;43.89;100733.53;1758209;79;21883;-57
2021/11/11 09:48:28;;;;;;;1.30;0.80;;;;;;;6.53;43.83;100736.61;1757414;79;20906;-56
2021/11/11 09:50:55;;;;;;;1.97;0.70;;;;;;;6.57;43.38;100727.61;1753886;79;20933;-57
2021/11/11 09:53:24;;;;;;;3.37;0.60;;;;;;;6.60;43.12;100724.00;1756509;79;21096;-57
2021/11/11 09:58:34;;;;;;;6.15;1.42;;;;;;;6.72;42.66;100705.94;1763600;79;20980;-57
2021/11/11 10:01:03;;;;;;;2.40;0.80;;;;;;;6.78;42.87;100703.17;1755153;79;20884;-55
2021/11/11 10:03:30;;;;;;;1.73;0.90;;;;;;;6.82;42.51;100683.45;1754821;79;20950;-55
2021/11/11 10:05:57;;;;;;;2.10;0.90;;;;;;;6.87;42.17;100678.49;1751185;80;22192;-56
2021/11/11 10:08:46;;;;;;;4.23;0.60;;;;;;;6.90;42.18;100680.64;1753577;79;21540;-56
2021/11/11 10:11:31;;;;;;;4.57;0.60;;;;;;;6.94;42.22;100678.80;1756280;79;21071;-56
2021/11/11 10:14:03;;;;;;;4.03;0.80;;;;;;;6.97;42.28;100669.39;1754564;79;21582;-55
2021/11/11 10:16:30;;;;;;;1.47;0.90;;;;;;;7.03;42.13;100658.55;1749971;79;21537;-57
2021/11/11 10:18:59;;;;;;;2.20;0.90;;;;;;;7.05;42.24;100640.22;1754995;79;21143;-57
2021/11/11 10:24:30;;;;;;;2.87;0.90;;;;;;;7.12;42.02;100627.13;1752054;79;22172;-56
2021/11/11 10:27:05;;;;;;;3.37;0.70;;;;;;;7.17;42.13;100623.00;1750731;80;21041;-57
2021/11/11 10:29:48;;;;;;;4.00;0.70;;;;;;;7.22;41.83;100605.06;1744155;79;21662;-57
2021/11/11 10:32:40;;;;;;;2.33;0.70;;;;;;;7.25;41.63;100598.73;1755192;79;20874;-57
2021/11/11 10:35:15;;;;;;;1.93;0.50;;;;;;;7.30;41.78;100623.19;1754713;79;20970;-57
2021/11/11 10:37:50;;;;;;;2.50;0.80;;;;;;;7.37;41.82;100623.48;1753563;79;20969;-56
2021/11/11 10:40:20;;;;;;;1.97;0.70;;;;;;;7.44;41.74;100598.32;1750266;79;21069;-57
2021/11/11 10:42:48;;;;;;;3.63;0.80;;;;;;;7.50;41.51;100590.59;1754645;79;21385;-56
2021/11/11 10:45:28;;;;;;;1.90;0.77;;;;;;;7.54;41.60;100582.93;1754722;79;21952;-56
2021/11/11 10:47:58;;;;;;;2.43;0.80;;;;;;;7.58;41.76;100588.16;1754160;79;20938;-57
2021/11/11 10:50:29;;;;;;;2.03;0.83;;;;;;;7.64;42.00;100590.30;1751207;80;21071;-56
2021/11/11 10:52:57;;;;;;;1.93;0.80;;;;;;;7.70;41.92;100573.61;1754045;79;20890;-57
2021/11/11 10:55:31;;;;;;;3.03;0.80;;;;;;;7.74;41.95;100565.91;1752600;79;20981;-57
2021/11/11 10:58:11;;;;;;;3.98;1.00;;;;;;;7.81;42.23;100559.97;1750131;79;21136;-57
2021/11/11 11:01:03;;;;;;;2.20;0.90;;;;;;;7.86;42.08;100573.67;1747632;79;21033;-57
2021/11/11 11:03:43;;;;;;;1.27;0.70;;;;;;;7.90;42.25;100592.80;1754124;79;21550;-56
2021/11/11 11:06:11;;;;;;;5.60;0.80;;;;;;;7.92;42.11;100584.23;1753145;79;21523;-57
2021/11/11 11:08:48;;;;;;;3.27;0.80;;;;;;;7.90;42.27;100602.18;1753237;79;21034;-57
2021/11/11 11:11:33;;;;;;;4.80;0.97;;;;;;;7.91;42.56;100597.21;1753596;79;21932;-57
2021/11/11 11:14:02;;;;;;;5.12;1.10;;;;;;;7.96;42.49;100587.73;1733886;80;20977;-56
2021/11/11 11:16:33;;;;;;;6.60;1.10;;;;;;;8.01;42.63;100590.29;1752774;79;21229;-56
2021/11/11 11:19:09;;;;;;;2.93;1.10;;;;;;;8.04;42.62;100577.70;1753572;79;21556;-56
2021/11/11 11:21:48;;;;;;;2.83;1.20;;;;;;;8.08;42.55;100576.69;1750077;79;22155;-55
2021/11/11 11:24:21;;;;;;;1.43;0.90;;;;;;;8.09;42.56;100582.48;1754185;79;22474;-56
2021/11/11 11:26:53;;;;;;;3.33;0.80;;;;;;;8.09;42.49;100574.89;1752773;79;21268;-55
2021/11/11 11:29:27;;;;;;;4.40;0.90;;;;;;;8.12;42.48;100564.09;1753514;79;20981;-56
2021/11/11 11:34:44;;;;;;;2.70;0.90;;;;;;;8.12;42.10;100550.23;1778152;78;21037;-56
2021/11/11 11:37:14;;;;;;;3.37;1.00;;;;;;;8.11;42.01;100548.47;1742541;80;21254;-57
2021/11/11 11:39:53;;;;;;;2.63;1.07;;;;;;;8.11;42.07;100550.27;1769017;79;21073;-56
2021/11/11 11:42:23;;;;;;;2.53;1.20;;;;;;;8.09;41.94;100557.46;1777043;79;20961;-56
2021/11/11 11:44:55;;;;;;;2.20;1.00;;;;;;;8.08;41.94;100548.53;1776920;79;20950;-56
2021/11/11 11:48:53;;;;;;;6.07;0.80;;;;;;;8.09;41.88;100544.94;1788311;77;22511;-57
2021/11/11 11:51:22;;;;;;;5.17;1.10;;;;;;;8.04;42.17;100542.84;1729909;80;21514;-57
2021/11/11 11:53:53;;;;;;;6.47;1.00;;;;;;;8.03;42.35;100540.20;1759627;79;21814;-58
2021/11/11 11:56:24;;;;;;;3.50;1.00;;;;;;;8.02;42.55;100527.25;1758049;79;20914;-57
2021/11/11 11:58:59;;;;;;;5.13;1.27;;;;;;;8.02;42.57;100525.91;1761964;79;20962;-57
2021/11/11 12:04:16;;;;;;;4.70;1.33;;;;;;;8.02;42.84;100525.03;1617798;86;21841;-57
2021/11/11 12:42:52;;;;;;;7.23;2.17;;;;;;;7.96;44.14;100475.14;1837626;76;21941;-57
2021/11/11 12:45:31;;;;;;;7.53;1.73;;;;;;;7.93;44.21;100478.77;1804917;78;21052;-57
2021/11/11 12:48:11;;;;;;;7.77;2.10;;;;;;;7.94;44.28;100473.83;1812426;77;21142;-57
2021/11/11 12:51:00;;;;;;;5.60;1.77;;;;;;;7.95;44.33;100467.55;1809646;78;20871;-56